Time;durP1;ratioP1;P1;durP2;ratioP2;P2;SDS_P1;SDS_P2;PMS_P1;PMS_P2;Temp;Humidity;BMP_temperature;BMP_pressure;BME280_temperature;BME280_humidity;BME280_pressure;Samples;Min_cycle;Max_cycle;Signal;HPM_P1;HPM_P2
2022/09/05 00:02:30;;;;;;;5.47;3.10;;;17.10;86.20;;;;;;5046780;28;20037;-45
2022/09/05 00:05:27;;;;;;;3.80;3.28;;;17.10;86.80;;;;;;5050918;28;20043;-45
2022/09/05 00:08:06;;;;;;;3.63;3.10;;;17.10;84.30;;;;;;5050723;28;20383;-44
2022/09/05 00:10:59;;;;;;;3.92;3.10;;;17.20;86.10;;;;;;5049235;28;20048;-44
2022/09/05 00:13:29;;;;;;;4.57;3.08;;;17.30;84.10;;;;;;5050775;28;20059;-46
2022/09/05 00:15:58;;;;;;;;;;;17.30;84.70;;;;;;5051517;28;20294;-45
2022/09/05 00:18:33;;;;;;;3.60;2.95;;;17.30;84.40;;;;;;5049147;28;20358;-44
2022/09/05 00:21:36;;;;;;;3.03;2.72;;;17.40;83.90;;;;;;5050496;28;20260;-46
2022/09/05 00:24:23;;;;;;;4.85;3.03;;;17.40;85.60;;;;;;5041896;28;20029;-45
2022/09/05 00:27:06;;;;;;;5.00;2.92;;;17.40;83.80;;;;;;5045706;28;20028;-46
2022/09/05 00:29:54;;;;;;;3.38;3.05;;;17.40;83.30;;;;;;5041911;28;20056;-46
2022/09/05 00:32:46;;;;;;;3.63;3.03;;;17.50;83.00;;;;;;5050144;28;20363;-47
2022/09/05 00:35:24;;;;;;;3.80;2.95;;;17.50;83.60;;;;;;5041846;28;20172;-48
2022/09/05 00:37:51;;;;;;;3.53;2.83;;;17.50;83.00;;;;;;5050532;28;20032;-45
2022/09/05 00:40:40;;;;;;;3.45;3.15;;;17.40;83.60;;;;;;5050339;28;20414;-46
2022/09/05 00:43:12;;;;;;;3.78;3.22;;;17.40;83.80;;;;;;5050264;28;20032;-45
2022/09/05 00:45:51;;;;;;;4.38;3.28;;;17.40;82.90;;;;;;5050369;28;20021;-45
2022/09/05 00:48:27;;;;;;;3.50;2.95;;;17.40;82.90;;;;;;5050502;28;20021;-44
2022/09/05 00:50:56;;;;;;;4.03;3.60;;;17.40;82.80;;;;;;5049680;28;20044;-44
2022/09/05 00:53:41;;;;;;;5.22;3.13;;;17.30;82.70;;;;;;5050042;28;20056;-44
2022/09/05 00:56:15;;;;;;;3.90;2.75;;;17.30;82.90;;;;;;5050025;28;20532;-45
2022/09/05 00:58:43;;;;;;;4.80;3.03;;;17.30;82.70;;;;;;5040899;28;20018;-44
2022/09/05 01:01:25;;;;;;;5.20;3.20;;;17.30;82.90;;;;;;5045343;28;20474;-46
2022/09/05 01:04:37;;;;;;;4.47;2.70;;;17.30;82.80;;;;;;5049906;28;20108;-45
2022/09/05 01:07:36;;;;;;;2.80;2.60;;;17.20;82.90;;;;;;5049740;28;20032;-46
2022/09/05 01:10:38;;;;;;;4.82;3.20;;;17.20;83.50;;;;;;5049803;28;20063;-45
2022/09/05 01:13:21;;;;;;;5.00;2.90;;;17.20;83.60;;;;;;5049262;28;20045;-44
2022/09/05 01:16:08;;;;;;;4.68;3.17;;;17.20;83.40;;;;;;5049578;28;20029;-45
2022/09/05 01:18:40;;;;;;;3.78;2.67;;;17.20;84.50;;;;;;5048203;28;20091;-46
2022/09/05 01:21:38;;;;;;;5.22;2.60;;;17.20;84.40;;;;;;5047730;28;20033;-45
2022/09/05 01:24:36;;;;;;;3.22;2.92;;;17.20;83.80;;;;;;5049238;28;20017;-45
2022/09/05 01:27:46;;;;;;;4.03;2.80;;;17.20;84.50;;;;;;5044022;28;20157;-45
2022/09/05 01:30:19;;;;;;;4.18;3.10;;;17.20;84.00;;;;;;5032966;28;20037;-46
2022/09/05 01:32:55;;;;;;;6.03;3.40;;;17.20;84.00;;;;;;5028869;28;20391;-48
2022/09/05 01:35:27;;;;;;;3.92;3.28;;;17.20;84.00;;;;;;5029374;28;20302;-46
2022/09/05 01:38:14;;;;;;;4.38;3.20;;;17.10;83.70;;;;;;5029140;28;20104;-44
2022/09/05 01:41:04;;;;;;;4.13;2.90;;;17.10;84.00;;;;;;5027232;28;20164;-46
2022/09/05 01:43:33;;;;;;;3.50;2.90;;;17.10;84.30;;;;;;5029309;28;20045;-46
2022/09/05 01:46:22;;;;;;;3.38;2.83;;;17.10;84.40;;;;;;5027823;28;20026;-45
2022/09/05 01:49:03;;;;;;;4.30;3.28;;;17.00;84.40;;;;;;5029364;28;20079;-46
2022/09/05 01:51:33;;;;;;;4.95;3.40;;;17.00;84.60;;;;;;5028499;28;20048;-45
2022/09/05 01:54:38;;;;;;;4.05;3.20;;;17.00;84.90;;;;;;5027878;28;20037;-46
2022/09/05 01:57:34;;;;;;;3.35;3.05;;;16.90;85.10;;;;;;5028726;28;20036;-46
2022/09/05 02:00:23;;;;;;;4.40;3.08;;;16.90;85.50;;;;;;5032294;28;20360;-48
2022/09/05 02:03:09;;;;;;;4.85;3.20;;;16.80;86.00;;;;;;5028254;28;20025;-48
2022/09/05 02:06:15;;;;;;;5.30;3.17;;;16.80;86.00;;;;;;5027697;28;20026;-46
2022/09/05 02:09:01;;;;;;;4.93;2.97;;;16.80;86.30;;;;;;5009138;28;20291;-47
2022/09/05 02:11:55;;;;;;;5.65;3.00;;;16.70;86.80;;;;;;5008230;28;20068;-45
2022/09/05 02:14:40;;;;;;;6.50;3.60;;;16.70;88.00;;;;;;5008699;28;20637;-46
2022/09/05 02:17:34;;;;;;;4.78;3.67;;;16.70;87.10;;;;;;5007463;28;20025;-46
2022/09/05 02:20:45;;;;;;;3.25;2.92;;;16.70;87.10;;;;;;5007343;28;20034;-48
2022/09/05 02:23:16;;;;;;;3.83;3.40;;;16.70;87.30;;;;;;4986298;28;20019;-49
2022/09/05 02:26:03;;;;;;;2.85;2.65;;;16.60;87.50;;;;;;4986351;28;20030;-46
2022/09/05 02:28:56;;;;;;;7.82;3.25;;;16.70;87.70;;;;;;5020449;28;20104;-45
2022/09/05 02:31:32;;;;;;;6.95;3.05;;;16.60;88.10;;;;;;5045899;28;20488;-45
2022/09/05 02:34:21;;;;;;;4.70;3.45;;;16.60;88.90;;;;;;5048352;28;20033;-47
2022/09/05 02:37:13;;;;;;;3.83;3.25;;;16.60;88.60;;;;;;5047123;28;20040;-46
2022/09/05 02:40:06;;;;;;;5.97;3.38;;;16.50;89.50;;;;;;5011078;28;20034;-47
2022/09/05 02:43:00;;;;;;;5.18;3.50;;;16.50;89.50;;;;;;5011270;28;20684;-45
2022/09/05 02:45:40;;;;;;;5.07;3.25;;;16.50;89.80;;;;;;5011204;28;20053;-44
2022/09/05 02:48:17;;;;;;;4.80;3.45;;;16.50;90.00;;;;;;5020872;28;20055;-46
2022/09/05 02:50:58;;;;;;;8.48;3.70;;;16.40;90.10;;;;;;5027606;28;20061;-49
2022/09/05 02:53:26;;;;;;;4.57;3.22;;;16.50;89.80;;;;;;5028295;28;20030;-46
2022/09/05 02:56:22;;;;;;;4.70;3.83;;;16.40;90.20;;;;;;5028203;28;20076;-46
2022/09/05 02:59:08;;;;;;;6.05;3.58;;;16.40;90.80;;;;;;5036076;28;20509;-45
2022/09/05 03:01:48;;;;;;;3.80;3.30;;;16.40;90.60;;;;;;5047337;28;20029;-47
2022/09/05 03:04:54;;;;;;;3.67;3.28;;;16.40;90.50;;;;;;5048161;28;20040;-46
2022/09/05 03:07:40;;;;;;;4.32;3.63;;;16.40;90.50;;;;;;5048132;28;20072;-45
2022/09/05 03:10:39;;;;;;;6.95;3.95;;;16.40;90.70;;;;;;5048220;28;20025;-45
2022/09/05 03:13:31;;;;;;;6.60;3.63;;;16.30;91.00;;;;;;5043086;28;20383;-47
2022/09/05 03:16:15;;;;;;;4.13;3.28;;;16.30;91.10;;;;;;5048382;28;20029;-46
2022/09/05 03:19:25;;;;;;;9.25;3.53;;;16.30;91.20;;;;;;5048346;28;20301;-45
2022/09/05 03:22:09;;;;;;;5.32;3.53;;;16.30;91.30;;;;;;5047467;28;20123;-45
2022/09/05 03:24:43;;;;;;;4.28;3.53;;;16.20;91.30;;;;;;5048237;28;20111;-46
2022/09/05 03:27:28;;;;;;;3.97;3.58;;;16.20;91.40;;;;;;5044140;28;20100;-46
2022/09/05 03:30:04;;;;;;;3.50;3.20;;;16.20;91.90;;;;;;5032484;28;20108;-46
2022/09/05 03:33:04;;;;;;;4.55;3.83;;;16.20;91.60;;;;;;5046513;28;20078;-46
2022/09/05 03:36:08;;;;;;;5.00;3.95;;;16.20;91.70;;;;;;5048008;28;20029;-48
2022/09/05 03:39:01;;;;;;;4.15;3.50;;;16.20;92.00;;;;;;5036897;28;20060;-45
2022/09/05 03:41:59;;;;;;;4.63;3.40;;;16.20;92.00;;;;;;5046878;28;20021;-45
2022/09/05 03:44:38;;;;;;;4.22;3.22;;;16.30;92.20;;;;;;5049918;28;20036;-46
2022/09/05 03:47:12;;;;;;;4.95;3.58;;;16.20;92.20;;;;;;5051352;28;20029;-45
2022/09/05 03:50:02;;;;;;;5.82;3.95;;;16.20;92.50;;;;;;5051356;28;20024;-45
2022/09/05 03:52:57;;;;;;;4.60;3.78;;;16.20;92.50;;;;;;5050541;28;20021;-46
2022/09/05 03:55:50;;;;;;;4.13;3.50;;;16.30;92.60;;;;;;5051160;28;20403;-46
2022/09/05 03:58:39;;;;;;;4.45;4.03;;;16.30;92.60;;;;;;5048479;28;20106;-45
2022/09/05 04:01:35;;;;;;;4.00;3.58;;;16.20;93.20;;;;;;5042274;28;20021;-46
2022/09/05 04:04:09;;;;;;;4.55;3.67;;;16.20;92.80;;;;;;5051189;28;20105;-45
2022/09/05 04:06:46;;;;;;;5.93;3.92;;;16.20;92.90;;;;;;5051252;28;20017;-45
2022/09/05 04:09:35;;;;;;;4.28;3.88;;;16.20;93.20;;;;;;5051050;28;20021;-46
2022/09/05 04:12:15;;;;;;;6.57;4.38;;;16.20;93.10;;;;;;5048978;28;20393;-45
2022/09/05 04:14:53;;;;;;;6.97;4.50;;;16.20;93.40;;;;;;5050809;28;20021;-46
2022/09/05 04:17:27;;;;;;;4.80;4.15;;;16.20;93.40;;;;;;5050675;28;20021;-47
2022/09/05 04:20:03;;;;;;;4.80;3.95;;;16.20;93.40;;;;;;5050626;28;20033;-46
2022/09/05 04:22:49;;;;;;;5.88;4.22;;;16.20;93.40;;;;;;5049900;28;20043;-46
2022/09/05 04:25:23;;;;;;;5.20;3.88;;;16.20;93.60;;;;;;5050637;28;20025;-45
2022/09/05 04:28:26;;;;;;;6.53;4.05;;;16.20;93.70;;;;;;5049204;28;20064;-47
2022/09/05 04:31:00;;;;;;;5.85;4.28;;;16.20;93.60;;;;;;5031781;28;20501;-46
2022/09/05 04:33:36;;;;;;;5.38;4.10;;;16.20;93.60;;;;;;5030611;28;20087;-45
2022/09/05 04:36:19;;;;;;;6.20;3.83;;;16.20;93.80;;;;;;5030519;28;20108;-45
2022/09/05 04:39:04;;;;;;;4.78;4.10;;;16.10;93.90;;;;;;5030877;28;20021;-45
2022/09/05 04:41:32;;;;;;;7.60;4.65;;;16.10;94.10;;;;;;5036572;28;20043;-46
2022/09/05 04:44:05;;;;;;;7.75;4.35;;;16.10;94.10;;;;;;5044922;28;20024;-46
2022/09/05 04:46:39;;;;;;;5.13;4.18;;;16.10;94.40;;;;;;5048797;28;20482;-45
2022/09/05 04:49:13;;;;;;;5.82;4.43;;;16.10;94.60;;;;;;5034995;28;20025;-45
2022/09/05 04:51:50;;;;;;;5.53;4.53;;;16.10;94.40;;;;;;5018267;28;20022;-45
2022/09/05 04:54:32;;;;;;;5.90;4.50;;;16.10;94.40;;;;;;5020302;28;20029;-45
2022/09/05 04:57:07;;;;;;;6.13;4.80;;;16.10;94.50;;;;;;5020220;28;20538;-47
2022/09/05 05:00:02;;;;;;;6.65;4.20;;;16.20;94.40;;;;;;5035349;28;20037;-46
2022/09/05 05:02:39;;;;;;;4.85;4.20;;;16.20;94.30;;;;;;5029482;28;20036;-44
2022/09/05 05:05:10;;;;;;;4.93;3.92;;;16.20;94.40;;;;;;5027900;28;20030;-43
2022/09/05 05:08:04;;;;;;;6.60;4.50;;;16.20;94.40;;;;;;5021358;28;20036;-45
2022/09/05 05:10:34;;;;;;;4.88;3.90;;;16.20;94.40;;;;;;5019914;28;20065;-43
2022/09/05 05:13:03;;;;;;;7.53;4.53;;;16.20;94.50;;;;;;5028616;28;20471;-44
2022/09/05 05:15:31;;;;;;;5.93;4.50;;;16.20;94.50;;;;;;5037638;28;20025;-43
2022/09/05 05:18:04;;;;;;;7.28;4.50;;;16.20;94.40;;;;;;5016600;28;20033;-46
2022/09/05 05:20:43;;;;;;;6.43;4.30;;;16.30;94.30;;;;;;5017224;28;20036;-45
2022/09/05 05:23:14;;;;;;;6.93;4.43;;;16.30;94.30;;;;;;5041033;28;20017;-46
2022/09/05 05:25:51;;;;;;;6.82;4.75;;;16.30;94.20;;;;;;5047580;28;20013;-46
2022/09/05 05:28:41;;;;;;;7.25;4.90;;;16.30;94.00;;;;;;5039635;28;20493;-45
2022/09/05 05:31:23;;;;;;;5.72;4.72;;;16.30;94.10;;;;;;5048890;28;20111;-43
2022/09/05 05:33:50;;;;;;;4.35;3.92;;;16.30;94.30;;;;;;5049408;28;20086;-45
2022/09/05 05:36:22;;;;;;;7.47;4.38;;;16.30;94.30;;;;;;5047874;28;20123;-45
2022/09/05 05:38:55;;;;;;;5.13;4.20;;;16.40;94.30;;;;;;5049164;28;20033;-45
2022/09/05 05:41:41;;;;;;;8.15;4.68;;;16.40;94.10;;;;;;5048285;28;20043;-44
2022/09/05 05:44:31;;;;;;;8.18;4.93;;;16.40;94.30;;;;;;5048855;28;20075;-44
2022/09/05 05:47:18;;;;;;;5.68;5.07;;;16.30;94.40;;;;;;5049207;28;20021;-47
2022/09/05 05:50:11;;;;;;;6.50;4.20;;;16.40;94.40;;;;;;5049418;28;20096;-45
2022/09/05 05:53:00;;;;;;;8.63;4.57;;;16.40;94.20;;;;;;5048237;28;20021;-44
2022/09/05 05:56:10;;;;;;;6.20;4.53;;;16.40;94.30;;;;;;5048348;28;20017;-45
2022/09/05 05:58:56;;;;;;;6.35;4.65;;;16.50;94.40;;;;;;5040189;28;20104;-46
2022/09/05 06:01:57;;;;;;;10.93;4.80;;;16.50;94.70;;;;;;5048268;28;20029;-45
2022/09/05 06:04:47;;;;;;;8.13;4.68;;;16.40;94.60;;;;;;5049215;28;20078;-47
2022/09/05 06:07:50;;;;;;;9.07;5.25;;;16.40;94.60;;;;;;5048469;28;20017;-45
2022/09/05 06:10:26;;;;;;;6.90;4.68;;;16.50;94.70;;;;;;5048654;28;20475;-44
2022/09/05 06:13:31;;;;;;;6.90;4.38;;;16.60;94.70;;;;;;5047966;28;20048;-45
2022/09/05 06:16:12;;;;;;;8.48;5.03;;;16.60;94.60;;;;;;5047404;28;20035;-45
2022/09/05 06:19:13;;;;;;;7.63;4.30;;;16.70;94.70;;;;;;5048558;28;20036;-46
2022/09/05 06:21:54;;;;;;;;;;;16.80;94.30;;;;;;5048530;28;20024;-46
2022/09/05 06:24:39;;;;;;;;;;;16.90;94.30;;;;;;5049059;28;19905;-46
2022/09/05 06:27:12;;;;;;;45.28;29.08;;;16.90;94.40;;;;;;5040458;28;19905;-46
2022/09/05 06:30:07;;;;;;;19.38;13.13;;;17.00;94.20;;;;;;5010108;28;20475;-46
2022/09/05 06:32:46;;;;;;;6.88;4.63;;;17.10;94.10;;;;;;5038995;28;20025;-45
2022/09/05 06:35:27;;;;;;;5.95;4.95;;;17.10;93.90;;;;;;5048308;28;20252;-48
2022/09/05 06:38:34;;;;;;;5.22;4.72;;;17.10;93.90;;;;;;5048096;28;20041;-46
2022/09/05 06:41:19;;;;;;;10.75;5.05;;;17.20;94.00;;;;;;5047518;28;20166;-45
2022/09/05 06:44:03;;;;;;;6.07;4.97;;;17.30;94.00;;;;;;5036228;28;20062;-48
2022/09/05 06:46:38;;;;;;;7.25;4.72;;;17.30;93.80;;;;;;5022689;28;20026;-46
2022/09/05 06:49:18;;;;;;;8.85;5.07;;;17.40;94.00;;;;;;5027719;28;20049;-48
2022/09/05 06:51:55;;;;;;;7.03;4.70;;;17.50;94.00;;;;;;5026075;28;20177;-48
2022/09/05 06:54:46;;;;;;;7.93;4.75;;;17.60;93.70;;;;;;5028016;28;20029;-47
2022/09/05 06:57:58;;;;;;;9.52;5.22;;;17.70;93.50;;;;;;5023579;28;20085;-46
2022/09/05 07:00:50;;;;;;;8.95;5.43;;;17.80;93.20;;;;;;5029213;28;20025;-46
2022/09/05 07:03:47;;;;;;;6.70;4.90;;;17.90;93.30;;;;;;5039221;28;20028;-48
2022/09/05 07:06:28;;;;;;;5.82;4.93;;;18.00;93.20;;;;;;5047887;28;20025;-45
2022/09/05 07:09:08;;;;;;;10.20;4.97;;;18.10;93.30;;;;;;5048021;28;20421;-47
2022/09/05 07:11:44;;;;;;;7.57;5.00;;;18.20;92.80;;;;;;5047259;28;20029;-47
2022/09/05 07:14:24;;;;;;;7.00;4.82;;;18.30;92.70;;;;;;5048210;28;20029;-49
2022/09/05 07:17:09;;;;;;;7.38;5.28;;;18.40;92.80;;;;;;5047895;28;20444;-46
2022/09/05 07:19:48;;;;;;;6.85;5.07;;;18.40;92.60;;;;;;5050207;28;20107;-46
2022/09/05 07:22:32;;;;;;;12.77;6.05;;;18.60;92.70;;;;;;5051022;28;20083;-47
2022/09/05 07:25:07;;;;;;;9.70;5.20;;;18.70;92.30;;;;;;5051606;28;20017;-49
2022/09/05 07:27:44;;;;;;;6.45;5.28;;;19.10;91.80;;;;;;5051690;28;20053;-47
2022/09/05 07:30:12;;;;;;;10.52;5.25;;;19.50;90.80;;;;;;5044297;28;20029;-47
2022/09/05 07:32:44;;;;;;;11.23;9.25;;;19.80;90.70;;;;;;5039091;28;20022;-48
2022/09/05 07:35:32;;;;;;;40.63;28.17;;;20.30;90.30;;;;;;5031719;28;20036;-47
2022/09/05 07:38:03;;;;;;;9.55;6.65;;;20.70;88.50;;;;;;5031380;28;20431;-46
2022/09/05 07:40:33;;;;;;;6.35;5.60;;;21.00;86.90;;;;;;5030538;28;20018;-45
2022/09/05 07:43:15;;;;;;;8.20;5.80;;;20.80;87.00;;;;;;5031161;28;20018;-46
2022/09/05 07:46:12;;;;;;;6.97;5.00;;;20.80;87.70;;;;;;5030788;28;20036;-46
2022/09/05 07:48:49;;;;;;;6.28;5.20;;;20.90;87.80;;;;;;5024404;28;20115;-46
2022/09/05 07:51:24;;;;;;;8.35;5.22;;;21.40;85.60;;;;;;5019794;28;20018;-46
2022/09/05 07:54:19;;;;;;;10.90;5.63;;;22.20;83.50;;;;;;5023586;28;20021;-46
2022/09/05 07:57:02;;;;;;;10.32;5.40;;;22.70;82.50;;;;;;5012897;28;20048;-45
2022/09/05 07:59:32;;;;;;;9.35;5.90;;;23.20;79.50;;;;;;5017149;28;20030;-45
2022/09/05 08:01:59;;;;;;;6.27;4.90;;;23.60;78.50;;;;;;5036074;28;20442;-46
2022/09/05 08:04:33;;;;;;;13.20;5.55;;;24.20;76.30;;;;;;5015923;28;20030;-46
2022/09/05 08:07:05;;;;;;;8.00;4.88;;;24.50;75.60;;;;;;5009743;28;20125;-45
2022/09/05 08:09:35;;;;;;;6.80;5.40;;;24.80;74.30;;;;;;5011113;28;20376;-46
2022/09/05 08:12:10;;;;;;;8.90;5.30;;;25.30;73.50;;;;;;5011024;28;20036;-46
2022/09/05 08:14:38;;;;;;;7.85;5.03;;;25.80;71.10;;;;;;5010595;28;20045;-47
2022/09/05 08:17:12;;;;;;;10.35;4.95;;;25.70;70.50;;;;;;5010956;28;20026;-47
2022/09/05 08:19:37;;;;;;;9.38;5.40;;;26.50;68.90;;;;;;5010363;28;20057;-48
2022/09/05 08:22:05;;;;;;;5.95;4.70;;;26.80;67.30;;;;;;5010685;28;20060;-47
2022/09/05 08:24:39;;;;;;;7.95;4.40;;;27.80;66.30;;;;;;5010736;28;20394;-46
2022/09/05 08:27:28;;;;;;;9.50;4.53;;;29.00;64.10;;;;;;5009670;28;20030;-47
2022/09/05 08:30:06;;;;;;;58.28;48.50;;;30.30;61.60;;;;;;5012111;28;20018;-50
2022/09/05 08:32:45;;;;;;;17.70;15.23;;;30.80;59.60;;;;;;5040765;28;20029;-47
2022/09/05 08:35:57;;;;;;;10.27;5.97;;;31.50;58.80;;;;;;5050368;28;20035;-47
2022/09/05 08:38:24;;;;;;;8.32;4.93;;;32.30;57.00;;;;;;5027395;28;20471;-46
2022/09/05 08:40:59;;;;;;;4.55;3.80;;;33.60;54.00;;;;;;5044849;28;20040;-48
2022/09/05 08:43:47;;;;;;;5.15;4.05;;;33.50;53.20;;;;;;5020948;28;20022;-46
2022/09/05 08:46:34;;;;;;;4.85;4.15;;;33.60;53.00;;;;;;5009530;28;20120;-46
2022/09/05 08:49:27;;;;;;;6.18;3.70;;;34.20;51.90;;;;;;5024940;28;20029;-44
2022/09/05 08:52:17;;;;;;;4.85;4.20;;;34.20;51.30;;;;;;5028787;28;20022;-45
2022/09/05 08:54:42;;;;;;;;;;;34.60;51.10;;;;;;5029451;28;20022;-45
2022/09/05 08:57:17;;;;;;;6.03;4.03;;;35.40;49.40;;;;;;5029139;28;19909;-45
2022/09/05 09:00:00;;;;;;;4.75;3.65;;;36.00;49.00;;;;;;5024048;28;20041;-45
2022/09/05 09:02:53;;;;;;;6.00;3.60;;;36.00;48.00;;;;;;5036726;28;20049;-45
2022/09/05 09:05:43;;;;;;;6.00;4.10;;;36.70;47.40;;;;;;5048562;28;20478;-46
2022/09/05 09:08:20;;;;;;;7.25;4.03;;;37.00;46.80;;;;;;5048516;28;20166;-48
2022/09/05 09:11:11;;;;;;;6.63;3.75;;;37.10;45.80;;;;;;5047804;28;20533;-45
2022/09/05 09:14:14;;;;;;;7.32;3.80;;;37.00;46.10;;;;;;5045676;28;20107;-46
2022/09/05 09:16:52;;;;;;;7.90;3.97;;;37.70;45.30;;;;;;5048008;28;20033;-45
2022/09/05 09:19:42;;;;;;;4.13;3.70;;;37.50;45.10;;;;;;5047011;28;20107;-48
2022/09/05 09:22:21;;;;;;;5.35;3.67;;;36.70;46.00;;;;;;5036455;28;20041;-46
2022/09/05 09:25:36;;;;;;;4.63;3.90;;;37.10;46.00;;;;;;5048218;28;20079;-47
2022/09/05 09:28:12;;;;;;;4.60;3.92;;;37.80;44.70;;;;;;5029204;28;20036;-47
2022/09/05 09:30:43;;;;;;;6.45;3.97;;;37.00;45.10;;;;;;5041976;28;20016;-46
2022/09/05 09:33:19;;;;;;;23.50;21.08;;;37.20;44.90;;;;;;5040880;28;20013;-49
2022/09/05 09:36:04;;;;;;;15.95;10.10;;;36.10;45.80;;;;;;5049232;28;20025;-46
2022/09/05 10:12:35;;;;;;;9.88;4.50;;;38.00;43.10;;;;;;5019992;28;20562;-49
2022/09/05 10:15:23;;;;;;;6.65;3.65;;;37.80;43.30;;;;;;5026279;28;20021;-47
2022/09/05 10:18:12;;;;;;;9.27;4.03;;;37.50;43.50;;;;;;5030241;28;20021;-47
2022/09/05 10:20:38;;;;;;;8.02;3.95;;;37.30;44.10;;;;;;5029817;28;20030;-47
2022/09/05 10:23:51;;;;;;;6.32;3.97;;;37.50;43.30;;;;;;5030205;28;20021;-47
2022/09/05 10:27:00;;;;;;;8.85;3.80;;;36.90;43.30;;;;;;5024895;28;20274;-46
2022/09/05 10:29:39;;;;;;;;;;;35.70;44.90;;;;;;5029446;28;20463;-46
2022/09/05 10:32:11;;;;;;;7.78;4.50;;;35.50;45.40;;;;;;5034515;28;19995;-46
2022/09/05 10:34:58;;;;;;;6.55;3.97;;;35.60;44.90;;;;;;5033902;28;20497;-47
2022/09/05 10:37:41;;;;;;;7.97;4.03;;;35.80;45.80;;;;;;5049477;28;20031;-50
2022/09/05 10:40:11;;;;;;;9.70;3.85;;;36.50;45.50;;;;;;5048699;28;20063;-48
2022/09/05 10:42:45;;;;;;;5.68;3.67;;;37.30;43.90;;;;;;5035705;28;20032;-48
2022/09/05 10:45:17;;;;;;;6.50;4.18;;;37.80;43.60;;;;;;5028339;28;20037;-50
2022/09/05 10:48:00;;;;;;;7.57;4.22;;;38.10;42.60;;;;;;5029599;28;20021;-47
2022/09/05 10:50:38;;;;;;;7.68;3.88;;;37.80;43.80;;;;;;5029717;28;20475;-48
2022/09/05 10:53:15;;;;;;;7.10;4.10;;;38.40;43.30;;;;;;5031871;28;20033;-46
2022/09/05 10:56:03;;;;;;;6.57;4.13;;;39.10;42.00;;;;;;5034133;28;20053;-47
2022/09/05 10:58:32;;;;;;;7.95;4.32;;;38.00;43.30;;;;;;5030401;28;20044;-47
2022/09/05 11:01:21;;;;;;;8.27;3.55;;;38.50;43.20;;;;;;5033366;28;20025;-47
2022/09/05 11:03:50;;;;;;;7.18;4.28;;;38.60;43.30;;;;;;5032138;28;20025;-49
2022/09/05 11:06:21;;;;;;;7.80;4.40;;;38.90;42.60;;;;;;5033129;28;20048;-49
2022/09/05 11:09:06;;;;;;;9.43;4.28;;;39.30;43.00;;;;;;5032601;28;20022;-47
2022/09/05 11:11:44;;;;;;;4.70;4.20;;;39.90;42.20;;;;;;5032089;28;20498;-46
2022/09/05 11:14:28;;;;;;;9.10;4.05;;;40.60;41.10;;;;;;5032517;28;20124;-47
2022/09/05 11:17:05;;;;;;;8.88;3.70;;;39.80;41.10;;;;;;5033548;28;20029;-47
2022/09/05 11:19:42;;;;;;;6.65;3.67;;;39.60;42.30;;;;;;5033413;28;20041;-47
2022/09/05 11:22:11;;;;;;;6.53;3.65;;;39.30;41.80;;;;;;5033471;28;20025;-50
2022/09/05 11:24:48;;;;;;;5.22;3.72;;;39.60;42.30;;;;;;5032309;28;20049;-47
2022/09/05 11:27:32;;;;;;;5.00;4.03;;;39.40;42.10;;;;;;5033241;28;20020;-49
2022/09/05 11:30:03;;;;;;;15.95;4.82;;;39.00;42.10;;;;;;5028297;28;20029;-47
2022/09/05 11:33:03;;;;;;;6.35;4.20;;;39.20;41.80;;;;;;5037548;28;20021;-49
2022/09/05 11:35:33;;;;;;;6.00;3.67;;;40.10;41.20;;;;;;5033846;28;20018;-49
2022/09/05 11:38:01;;;;;;;5.07;3.50;;;39.70;41.70;;;;;;5033384;28;20114;-50
2022/09/05 11:40:52;;;;;;;5.13;3.33;;;39.40;41.30;;;;;;5032843;28;20083;-48
2022/09/05 11:43:37;;;;;;;6.93;3.70;;;39.70;41.50;;;;;;5033453;28;20029;-48
2022/09/05 11:46:26;;;;;;;7.53;3.70;;;39.40;41.10;;;;;;5030196;28;20022;-46
2022/09/05 11:49:20;;;;;;;8.32;3.55;;;38.80;42.40;;;;;;5033254;28;20022;-49
2022/09/05 11:52:13;;;;;;;5.43;4.13;;;39.10;41.70;;;;;;5032631;28;20380;-49
2022/09/05 11:54:54;;;;;;;7.38;3.75;;;38.50;42.70;;;;;;5031725;28;20132;-47
2022/09/05 11:57:38;;;;;;;4.40;3.70;;;38.00;43.00;;;;;;5033332;28;20049;-47
2022/09/05 12:00:18;;;;;;;5.28;4.03;;;38.60;42.10;;;;;;5030045;28;20610;-46
2022/09/05 12:02:44;;;;;;;5.30;4.05;;;38.40;41.70;;;;;;5032954;28;20060;-48
2022/09/05 12:05:31;;;;;;;7.18;4.88;;;37.40;43.20;;;;;;5032031;28;20049;-47
2022/09/05 12:08:07;;;;;;;4.70;3.75;;;37.30;44.00;;;;;;5032744;28;20025;-48
2022/09/05 12:11:11;;;;;;;10.32;4.65;;;37.00;43.40;;;;;;5031312;28;20032;-49
2022/09/05 12:13:45;;;;;;;4.60;4.05;;;36.10;45.40;;;;;;5031382;28;20120;-47
2022/09/05 12:16:19;;;;;;;8.05;4.10;;;36.10;45.00;;;;;;5032530;28;20021;-50
2022/09/05 12:19:11;;;;;;;9.07;3.67;;;35.80;45.20;;;;;;5032559;28;20041;-48
2022/09/05 12:22:04;;;;;;;4.43;3.80;;;35.70;45.80;;;;;;5027552;28;20608;-47
2022/09/05 12:25:02;;;;;;;6.03;4.35;;;35.30;46.00;;;;;;5032312;28;20022;-46
2022/09/05 12:27:31;;;;;;;6.20;3.78;;;34.80;46.80;;;;;;5032478;28;20495;-49
2022/09/05 12:30:03;;;;;;;7.95;4.28;;;34.50;46.50;;;;;;5031669;28;20478;-46
2022/09/05 12:32:32;;;;;;;5.60;4.07;;;34.20;47.80;;;;;;5039017;28;20033;-47
2022/09/05 12:34:59;;;;;;;8.20;3.72;;;34.00;48.50;;;;;;5047109;28;20020;-49
2022/09/05 12:37:59;;;;;;;10.02;4.05;;;33.80;47.80;;;;;;5051972;28;20021;-48
2022/09/05 12:40:29;;;;;;;5.18;3.75;;;33.70;48.80;;;;;;5047219;28;20037;-47
2022/09/05 12:42:59;;;;;;;6.60;3.97;;;33.30;48.20;;;;;;5051965;28;20028;-46
2022/09/05 12:45:25;;;;;;;;;;;33.40;48.30;;;;;;5051116;28;20021;-48
2022/09/05 12:48:09;;;;;;;11.43;4.10;;;33.30;49.00;;;;;;5029681;28;20345;-46
2022/09/05 12:50:59;;;;;;;4.80;4.20;;;33.00;48.60;;;;;;5022900;28;20032;-48
2022/09/05 12:53:34;;;;;;;4.90;4.18;;;32.70;48.80;;;;;;5031865;28;20055;-46
2022/09/05 12:56:03;;;;;;;8.57;3.83;;;32.70;49.90;;;;;;5031830;28;20045;-48
2022/09/05 12:58:31;;;;;;;10.25;4.15;;;32.50;49.60;;;;;;5032250;28;20398;-48
2022/09/05 13:01:19;;;;;;;5.20;4.07;;;32.50;50.10;;;;;;5030991;28;20506;-46
2022/09/05 13:03:55;;;;;;;4.93;3.83;;;32.40;50.60;;;;;;5033188;28;20021;-47
2022/09/05 13:06:45;;;;;;;6.85;4.05;;;32.10;49.60;;;;;;5031437;28;20048;-50
2022/09/05 13:09:22;;;;;;;4.80;4.05;;;32.10;50.10;;;;;;5031761;28;20028;-47
2022/09/05 13:12:07;;;;;;;5.45;3.80;;;31.70;50.40;;;;;;5035504;28;20029;-47
2022/09/05 13:14:51;;;;;;;4.95;4.18;;;31.70;50.60;;;;;;5043258;28;20021;-48
2022/09/05 13:17:25;;;;;;;7.93;4.22;;;31.60;50.60;;;;;;5051583;28;20502;-47
2022/09/05 13:19:51;;;;;;;7.00;3.97;;;31.80;50.60;;;;;;5050984;28;20036;-47
2022/09/05 13:22:20;;;;;;;15.43;4.57;;;31.80;50.50;;;;;;5051450;28;20017;-47
2022/09/05 13:24:57;;;;;;;6.10;4.40;;;31.40;50.30;;;;;;5049739;28;20056;-47
2022/09/05 13:27:30;;;;;;;8.73;3.90;;;31.50;51.30;;;;;;5050651;28;20482;-47
2022/09/05 13:30:07;;;;;;;10.18;3.90;;;31.50;51.00;;;;;;5050394;28;20096;-46
2022/09/05 13:32:44;;;;;;;6.70;4.10;;;31.40;51.00;;;;;;5043056;28;20064;-47
2022/09/05 13:35:35;;;;;;;4.53;4.07;;;31.40;51.50;;;;;;5047544;28;20426;-46
2022/09/05 13:38:14;;;;;;;7.25;4.03;;;31.50;51.50;;;;;;5050915;28;20024;-47
2022/09/05 13:40:47;;;;;;;10.30;4.15;;;31.60;50.80;;;;;;5050176;28;20115;-48
2022/09/05 13:43:30;;;;;;;4.72;4.20;;;31.50;50.60;;;;;;5050379;28;20501;-49
2022/09/05 13:46:15;;;;;;;6.30;3.67;;;31.50;51.00;;;;;;5050199;28;20021;-47
2022/09/05 13:49:09;;;;;;;6.38;4.00;;;31.50;50.80;;;;;;5040692;28;20045;-48
2022/09/05 13:52:03;;;;;;;4.63;3.85;;;31.50;51.10;;;;;;5009079;28;20096;-47
2022/09/05 13:54:43;;;;;;;72.65;59.88;;;31.50;51.00;;;;;;5010511;28;20141;-47
2022/09/05 13:57:33;;;;;;;15.75;11.57;;;31.40;50.30;;;;;;5011135;28;20453;-50
2022/09/05 14:00:16;;;;;;;;;;;31.40;51.70;;;;;;5011337;28;20026;-49
2022/09/05 14:03:20;;;;;;;6.97;4.18;;;31.40;50.60;;;;;;5018913;28;19913;-47
2022/09/05 14:06:26;;;;;;;9.30;4.20;;;31.50;50.80;;;;;;5028703;28;20074;-46
2022/09/05 14:09:03;;;;;;;3.97;3.58;;;31.40;50.70;;;;;;5028327;28;20075;-48
2022/09/05 14:11:40;;;;;;;5.47;3.78;;;31.20;51.10;;;;;;5010892;28;20466;-50
2022/09/05 14:14:12;;;;;;;5.68;3.88;;;31.20;50.80;;;;;;5017613;28;20033;-47
2022/09/05 14:16:44;;;;;;;6.82;3.30;;;31.10;51.30;;;;;;5010493;28;20037;-47
2022/09/05 14:22:07;;;;;;;7.72;4.18;;;30.70;52.00;;;;;;5050122;28;20063;-48
2022/09/05 14:24:39;;;;;;;7.13;3.80;;;30.60;52.80;;;;;;5050173;28;20087;-47
2022/09/05 14:27:16;;;;;;;4.45;3.50;;;30.50;51.80;;;;;;5049973;28;20025;-49
2022/09/05 14:29:49;;;;;;;4.22;3.83;;;30.50;52.70;;;;;;5049934;28;20024;-49
2022/09/05 14:32:17;;;;;;;12.20;4.10;;;30.40;52.90;;;;;;5045915;28;20021;-47
2022/09/05 14:35:00;;;;;;;5.35;4.00;;;30.40;52.70;;;;;;5042911;28;20092;-47
2022/09/05 14:38:13;;;;;;;7.85;3.83;;;30.30;51.70;;;;;;5048754;28;20036;-47
2022/09/05 14:40:54;;;;;;;6.53;3.92;;;30.40;52.40;;;;;;5025634;28;20063;-48
2022/09/05 14:43:58;;;;;;;6.00;3.75;;;30.20;53.40;;;;;;5026798;28;20100;-46
2022/09/05 14:47:03;;;;;;;9.85;3.83;;;30.30;52.90;;;;;;5009437;28;20065;-50